< < Back
Terminal Aerodrome Forecast


Current Version              Previous Versions:   1  2  3  4  5  6  7  8  9  

Terminal Aerodrome Forecast

317
FTUS42 KFFC 252339
TAFAHN
TAF
KAHN 252339Z 2600/2624 29005KT P6SM BKN100 OVC250
     FM260200 00000KT P6SM -RA OVC050
     FM260500 31004KT 6SM -RA BR OVC030
     FM260800 32005KT 4SM -RA BR SCT007 OVC020
     FM261300 30005KT P6SM -SHRA BKN025
     FM261500 29006KT P6SM BKN060=



Latest METAR

815
SAUS70 KWBC 261100
MTRAHN
METAR KAHN 261051Z AUTO 28005KT 7SM -RA BKN005 OVC065 08/07 A2999 RMK
AO2 SLP157 P0002 T00780072


USA.gov is the U.S. government's official web portal to all federal, state and local government web resources and services.